createdAt,value
2022-07-26T00:00:16.363Z,0.00
2022-07-26T00:01:16.421Z,0.00
2022-07-26T00:02:18.496Z,0.00
2022-07-26T00:03:16.318Z,0.00
2022-07-26T00:04:16.395Z,0.00
2022-07-26T00:05:16.284Z,0.00
2022-07-26T00:06:16.284Z,0.00
2022-07-26T00:07:16.299Z,0.00
2022-07-26T00:08:16.254Z,0.00
2022-07-26T00:09:16.252Z,0.00
2022-07-26T00:10:16.334Z,0.00
2022-07-26T00:11:16.220Z,0.00
2022-07-26T00:12:16.248Z,0.00
2022-07-26T00:13:16.213Z,0.00
2022-07-26T00:14:16.306Z,0.00
2022-07-26T00:15:16.215Z,0.00
2022-07-26T00:16:16.385Z,0.00
2022-07-26T00:17:16.192Z,0.00
2022-07-26T00:18:16.245Z,0.00
2022-07-26T00:19:17.046Z,0.00
2022-07-26T00:20:16.249Z,0.00
2022-07-26T00:21:16.142Z,0.00
2022-07-26T00:22:16.300Z,0.00
2022-07-26T00:23:16.134Z,0.00
2022-07-26T00:24:16.106Z,0.00
2022-07-26T00:25:16.090Z,0.00
2022-07-26T00:26:16.203Z,0.00
2022-07-26T00:27:16.116Z,0.00
2022-07-26T00:28:16.063Z,0.00
2022-07-26T00:29:16.059Z,0.00
2022-07-26T00:30:16.055Z,0.00
2022-07-26T00:31:16.131Z,0.00
2022-07-26T00:32:16.137Z,0.00
2022-07-26T00:33:16.011Z,0.00
2022-07-26T00:34:16.008Z,0.00
2022-07-26T00:35:15.973Z,0.00
2022-07-26T00:36:15.972Z,0.00
2022-07-26T00:37:20.130Z,0.00
2022-07-26T00:38:15.955Z,0.00
2022-07-26T00:39:15.952Z,0.00
2022-07-26T00:40:15.926Z,0.00
2022-07-26T00:41:15.934Z,0.00
2022-07-26T00:42:15.946Z,0.00
2022-07-26T00:43:15.898Z,0.00
2022-07-26T00:44:15.902Z,0.00
2022-07-26T00:45:15.894Z,0.00
2022-07-26T00:46:15.921Z,0.00
2022-07-26T00:47:15.894Z,0.00
2022-07-26T00:48:15.851Z,0.00
2022-07-26T00:49:15.911Z,0.00
2022-07-26T00:50:15.830Z,0.00
2022-07-26T00:51:15.817Z,0.00
2022-07-26T00:52:15.833Z,0.00
2022-07-26T00:53:15.787Z,0.00
2022-07-26T00:54:15.839Z,0.00
2022-07-26T00:55:15.764Z,0.00
2022-07-26T00:56:15.754Z,0.00
2022-07-26T00:57:15.771Z,0.00
2022-07-26T00:58:15.733Z,0.00
2022-07-26T00:59:15.745Z,0.00
2022-07-26T01:00:15.726Z,0.00
2022-07-26T01:01:15.783Z,0.00
2022-07-26T01:02:15.791Z,0.00
2022-07-26T01:03:15.694Z,0.00
2022-07-26T01:04:15.666Z,0.00
2022-07-26T01:05:15.661Z,0.00
2022-07-26T01:06:15.642Z,0.00
2022-07-26T01:07:15.917Z,0.00
2022-07-26T01:08:15.612Z,0.00
2022-07-26T01:09:15.606Z,0.00
2022-07-26T01:10:15.598Z,0.00
2022-07-26T01:11:15.602Z,0.00
2022-07-26T01:12:15.630Z,0.00
2022-07-26T01:13:15.572Z,0.00
2022-07-26T01:14:15.547Z,0.00
2022-07-26T01:15:15.555Z,0.00
2022-07-26T01:16:15.571Z,0.00
2022-07-26T01:17:15.606Z,0.00
2022-07-26T01:18:15.503Z,0.00
2022-07-26T01:19:15.532Z,0.00
2022-07-26T01:20:15.493Z,0.00
2022-07-26T01:21:15.469Z,0.00
2022-07-26T01:22:15.502Z,0.00
2022-07-26T01:23:15.458Z,0.00
2022-07-26T01:24:15.442Z,0.00
2022-07-26T01:25:15.438Z,0.00
2022-07-26T01:26:15.417Z,0.00
2022-07-26T01:27:15.450Z,0.00
2022-07-26T01:28:19.832Z,0.00
2022-07-26T01:29:16.380Z,0.00
2022-07-26T01:30:15.382Z,0.00
2022-07-26T01:31:15.457Z,0.00
2022-07-26T01:32:15.400Z,0.00
2022-07-26T01:33:15.347Z,0.00
2022-07-26T01:34:15.328Z,0.00
2022-07-26T01:35:15.319Z,0.00
2022-07-26T01:36:15.301Z,0.00
2022-07-26T01:37:15.322Z,0.00
2022-07-26T01:38:15.285Z,0.00
2022-07-26T01:39:15.281Z,0.00
2022-07-26T01:40:15.274Z,0.00
2022-07-26T01:41:15.270Z,0.00
2022-07-26T01:42:15.268Z,0.00
2022-07-26T01:43:15.236Z,0.00
2022-07-26T01:44:15.223Z,0.00
2022-07-26T01:45:15.235Z,0.00
2022-07-26T01:46:15.246Z,0.00
2022-07-26T01:47:15.216Z,0.00
2022-07-26T01:48:15.175Z,0.00
2022-07-26T01:49:15.206Z,0.00
2022-07-26T01:50:15.129Z,0.00
2022-07-26T01:51:15.143Z,0.00
2022-07-26T01:52:15.163Z,0.00
2022-07-26T01:53:15.124Z,0.00
2022-07-26T01:54:15.121Z,0.00
2022-07-26T01:55:16.102Z,0.00
2022-07-26T01:56:15.095Z,0.00
2022-07-26T01:57:15.090Z,0.00
2022-07-26T01:58:15.047Z,0.00
2022-07-26T01:59:15.046Z,0.00
2022-07-26T02:00:15.060Z,0.00
2022-07-26T02:01:15.066Z,0.00
2022-07-26T02:02:15.166Z,0.00
2022-07-26T02:03:15.064Z,0.00
2022-07-26T02:04:14.990Z,0.00
2022-07-26T02:05:14.990Z,0.00
2022-07-26T02:06:14.955Z,0.00
2022-07-26T02:07:14.987Z,0.00
2022-07-26T02:08:14.936Z,0.00
2022-07-26T02:09:14.926Z,0.00
2022-07-26T02:10:14.929Z,0.00
2022-07-26T02:11:14.907Z,0.00
2022-07-26T02:12:14.923Z,0.00
2022-07-26T02:13:14.888Z,0.00
2022-07-26T02:14:25.718Z,0.00
2022-07-26T02:15:15.861Z,0.00
2022-07-26T02:16:14.900Z,0.00
2022-07-26T02:17:14.869Z,0.00
2022-07-26T02:18:14.845Z,0.00
2022-07-26T02:19:14.818Z,0.00
2022-07-26T02:20:14.806Z,0.00
2022-07-26T02:21:14.798Z,0.00
2022-07-26T02:22:14.810Z,0.00
2022-07-26T02:23:14.759Z,0.00
2022-07-26T02:24:14.784Z,0.00
2022-07-26T02:25:14.741Z,0.00
2022-07-26T02:26:14.734Z,0.00
2022-07-26T02:27:14.750Z,0.00
2022-07-26T02:28:14.714Z,0.00
2022-07-26T02:29:14.725Z,0.00
2022-07-26T02:30:14.703Z,0.00
2022-07-26T02:31:15.608Z,0.00
2022-07-26T02:32:14.703Z,0.00
2022-07-26T02:33:14.665Z,0.00
2022-07-26T02:34:14.652Z,0.00
2022-07-26T02:35:14.624Z,0.00
2022-07-26T02:36:14.641Z,0.00
2022-07-26T02:37:14.651Z,0.00
2022-07-26T02:38:14.593Z,0.00
2022-07-26T02:39:14.592Z,0.00
2022-07-26T02:40:19.111Z,0.00
2022-07-26T02:41:15.556Z,0.00
2022-07-26T02:42:14.585Z,0.00
2022-07-26T02:43:14.555Z,0.00
2022-07-26T02:44:14.541Z,0.00
2022-07-26T02:45:14.510Z,0.00
2022-07-26T02:46:14.545Z,0.00
2022-07-26T02:47:14.526Z,0.00
2022-07-26T02:48:14.580Z,0.00
2022-07-26T02:49:14.562Z,0.00
2022-07-26T02:50:14.468Z,0.00
2022-07-26T02:51:14.459Z,0.00
2022-07-26T02:52:14.584Z,0.00
2022-07-26T02:53:14.415Z,0.00
2022-07-26T02:54:14.430Z,0.00
2022-07-26T02:55:14.406Z,0.00
2022-07-26T02:56:14.485Z,0.00
2022-07-26T02:57:14.486Z,0.00
2022-07-26T02:58:14.390Z,0.00
2022-07-26T02:59:14.361Z,0.00
2022-07-26T03:00:14.391Z,0.00
2022-07-26T03:01:14.406Z,0.00
2022-07-26T03:02:14.489Z,0.00
2022-07-26T03:03:14.465Z,0.00
2022-07-26T03:04:14.299Z,0.00
2022-07-26T03:05:14.379Z,0.00
2022-07-26T03:06:14.391Z,5.62
2022-07-26T03:07:14.274Z,5.62
2022-07-26T03:08:14.372Z,5.62
2022-07-26T03:09:14.335Z,5.62
2022-07-26T03:10:14.250Z,5.62
2022-07-26T03:11:14.241Z,5.62
2022-07-26T03:12:14.204Z,5.62
2022-07-26T03:13:14.232Z,5.62
2022-07-26T03:14:14.208Z,5.62
2022-07-26T03:15:14.197Z,5.62
2022-07-26T03:16:16.166Z,5.62
2022-07-26T03:17:14.146Z,5.62
2022-07-26T03:18:14.180Z,11.25
2022-07-26T03:19:14.131Z,11.25
2022-07-26T03:20:14.142Z,11.25
2022-07-26T03:21:14.209Z,11.25
2022-07-26T03:22:14.110Z,11.25
2022-07-26T03:23:14.205Z,11.25
2022-07-26T03:24:14.072Z,16.88
2022-07-26T03:25:14.081Z,16.88
2022-07-26T03:26:14.086Z,16.88
2022-07-26T03:27:14.043Z,16.88
2022-07-26T03:28:19.129Z,22.50
2022-07-26T03:29:15.080Z,22.50
2022-07-26T03:30:14.018Z,22.50
2022-07-26T03:31:14.050Z,22.50
2022-07-26T03:32:14.062Z,28.12
2022-07-26T03:33:14.010Z,28.12
2022-07-26T03:34:13.977Z,28.12
2022-07-26T03:35:13.951Z,28.12
2022-07-26T03:36:15.499Z,28.12
2022-07-26T03:37:13.929Z,28.12
2022-07-26T03:38:13.961Z,33.75
2022-07-26T03:39:13.906Z,33.75
2022-07-26T03:40:13.997Z,39.38
2022-07-26T03:41:14.001Z,45.00
2022-07-26T03:42:13.872Z,50.62
2022-07-26T03:43:13.900Z,50.62
2022-07-26T03:44:13.859Z,56.25
2022-07-26T03:45:13.872Z,56.25
2022-07-26T03:46:13.870Z,61.88
2022-07-26T03:47:13.811Z,67.50
2022-07-26T03:48:13.889Z,73.12
2022-07-26T03:49:16.989Z,73.12
2022-07-26T03:50:14.044Z,78.75
2022-07-26T03:51:13.767Z,78.75
2022-07-26T03:52:13.775Z,78.75
2022-07-26T03:53:13.805Z,84.38
2022-07-26T03:54:13.763Z,90.00
2022-07-26T03:55:13.734Z,90.00
2022-07-26T03:56:13.722Z,95.62
2022-07-26T03:57:13.720Z,101.25
2022-07-26T03:58:13.781Z,106.88
2022-07-26T03:59:13.691Z,112.50
2022-07-26T04:00:13.673Z,118.12
2022-07-26T04:01:13.743Z,118.12
2022-07-26T04:02:13.698Z,112.50
2022-07-26T04:03:13.665Z,112.50
2022-07-26T04:04:13.624Z,118.12
2022-07-26T04:05:13.615Z,123.75
2022-07-26T04:06:13.615Z,129.38
2022-07-26T04:07:13.602Z,135.00
2022-07-26T04:08:13.633Z,140.62
2022-07-26T04:09:13.574Z,146.25
2022-07-26T04:10:13.572Z,151.88
2022-07-26T04:11:13.543Z,157.50
2022-07-26T04:12:13.541Z,163.12
2022-07-26T04:13:13.572Z,168.75
2022-07-26T04:14:13.509Z,168.75
2022-07-26T04:15:13.510Z,163.12
2022-07-26T04:16:13.507Z,157.50
2022-07-26T04:17:13.652Z,151.88
2022-07-26T04:18:13.511Z,151.88
2022-07-26T04:19:14.306Z,157.50
2022-07-26T04:20:13.447Z,168.75
2022-07-26T04:21:13.438Z,174.38
2022-07-26T04:22:13.415Z,168.75
2022-07-26T04:23:13.441Z,168.75
2022-07-26T04:24:13.432Z,174.38
2022-07-26T04:25:13.407Z,174.38
2022-07-26T04:26:13.398Z,168.75
2022-07-26T04:27:13.370Z,168.75
2022-07-26T04:28:13.391Z,168.75
2022-07-26T04:29:13.343Z,157.50
2022-07-26T04:30:15.461Z,168.75
2022-07-26T04:31:13.444Z,185.62
2022-07-26T04:32:13.303Z,191.25
2022-07-26T04:33:13.336Z,185.62
2022-07-26T04:34:13.319Z,196.88
2022-07-26T04:35:13.290Z,208.12
2022-07-26T04:36:13.286Z,219.38
2022-07-26T04:37:13.252Z,230.62
2022-07-26T04:38:13.272Z,247.50
2022-07-26T04:39:13.241Z,281.25
2022-07-26T04:40:13.237Z,298.12
2022-07-26T04:41:13.221Z,315.00
2022-07-26T04:42:13.237Z,343.12
2022-07-26T04:43:15.761Z,348.75
2022-07-26T04:44:13.226Z,360.00
2022-07-26T04:45:13.164Z,360.00
2022-07-26T04:46:13.231Z,365.62
2022-07-26T04:47:13.199Z,376.88
2022-07-26T04:48:13.191Z,388.12
2022-07-26T04:49:13.190Z,399.38
2022-07-26T04:50:13.109Z,410.62
2022-07-26T04:51:13.105Z,416.25
2022-07-26T04:52:13.102Z,421.88
2022-07-26T04:53:13.123Z,427.50
2022-07-26T04:54:13.066Z,433.12
2022-07-26T04:55:13.093Z,438.75
2022-07-26T04:56:13.064Z,444.38
2022-07-26T04:57:13.053Z,455.62
2022-07-26T04:58:13.067Z,461.25
2022-07-26T04:59:13.035Z,466.88
2022-07-26T05:00:27.999Z,472.50
2022-07-26T05:01:14.089Z,478.12
2022-07-26T05:02:13.122Z,489.38
2022-07-26T05:03:13.081Z,495.00
2022-07-26T05:04:12.991Z,506.25
2022-07-26T05:05:12.964Z,511.88
2022-07-26T05:06:12.977Z,517.50
2022-07-26T05:07:12.928Z,528.75
2022-07-26T05:08:12.989Z,534.38
2022-07-26T05:09:12.914Z,540.00
2022-07-26T05:10:12.908Z,545.62
2022-07-26T05:11:12.901Z,551.25
2022-07-26T05:12:12.884Z,562.50
2022-07-26T05:13:12.960Z,568.12
2022-07-26T05:14:12.977Z,568.12
2022-07-26T05:15:13.893Z,573.75
2022-07-26T05:16:12.846Z,579.38
2022-07-26T05:17:12.844Z,579.38
2022-07-26T05:18:13.882Z,585.00
2022-07-26T05:19:12.872Z,579.38
2022-07-26T05:20:12.811Z,579.38
2022-07-26T05:21:12.774Z,585.00
2022-07-26T05:22:12.905Z,596.25
2022-07-26T05:23:12.783Z,601.88
2022-07-26T05:24:12.963Z,618.75
2022-07-26T05:25:12.746Z,624.38
2022-07-26T05:26:12.819Z,641.25
2022-07-26T05:27:12.716Z,652.50
2022-07-26T05:28:12.736Z,658.12
2022-07-26T05:29:12.679Z,658.12
2022-07-26T05:30:12.725Z,652.50
2022-07-26T05:31:12.717Z,646.88
2022-07-26T05:32:12.661Z,652.50
2022-07-26T05:33:16.625Z,663.75
2022-07-26T05:34:12.647Z,669.38
2022-07-26T05:35:12.745Z,675.00
2022-07-26T05:36:12.605Z,686.25
2022-07-26T05:37:12.602Z,691.88
2022-07-26T05:38:12.622Z,691.88
2022-07-26T05:39:15.902Z,697.50
2022-07-26T05:40:12.551Z,703.12
2022-07-26T05:41:12.646Z,708.75
2022-07-26T05:42:12.637Z,708.75
2022-07-26T05:43:12.537Z,708.75
2022-07-26T05:44:12.560Z,703.12
2022-07-26T05:45:12.512Z,680.62
2022-07-26T05:46:12.612Z,646.88
2022-07-26T05:47:12.493Z,607.50
2022-07-26T05:48:12.645Z,534.38
2022-07-26T05:49:13.601Z,450.00
2022-07-26T05:50:12.435Z,399.38
2022-07-26T05:51:12.441Z,416.25
2022-07-26T05:52:12.423Z,421.88
2022-07-26T05:53:12.461Z,410.62
2022-07-26T05:54:12.427Z,416.25
2022-07-26T05:55:12.501Z,427.50
2022-07-26T05:56:12.492Z,421.88
2022-07-26T05:57:12.374Z,405.00
2022-07-26T05:58:12.389Z,393.75
2022-07-26T05:59:12.391Z,371.25
2022-07-26T06:00:12.339Z,331.88
2022-07-26T06:01:12.438Z,303.75
2022-07-26T06:02:12.452Z,281.25
2022-07-26T06:03:12.321Z,286.88
2022-07-26T06:04:13.066Z,320.62
2022-07-26T06:05:12.281Z,371.25
2022-07-26T06:06:12.294Z,427.50
2022-07-26T06:07:12.262Z,472.50
2022-07-26T06:08:12.259Z,511.88
2022-07-26T06:09:12.301Z,545.62
2022-07-26T06:10:12.375Z,562.50
2022-07-26T06:11:12.232Z,556.88
2022-07-26T06:12:12.231Z,585.00
2022-07-26T06:13:12.192Z,641.25
2022-07-26T06:14:12.580Z,708.75
2022-07-26T06:15:14.877Z,793.12
2022-07-26T06:16:12.167Z,855.00
2022-07-26T06:17:12.251Z,894.38
2022-07-26T06:18:12.169Z,916.88
2022-07-26T06:19:12.184Z,928.12
2022-07-26T06:20:12.127Z,939.38
2022-07-26T06:21:12.120Z,945.00
2022-07-26T06:22:12.095Z,956.25
2022-07-26T06:23:12.097Z,967.50
2022-07-26T06:24:12.478Z,973.12
2022-07-26T06:25:12.089Z,973.12
2022-07-26T06:26:12.073Z,973.12
2022-07-26T06:27:12.033Z,961.88
2022-07-26T06:28:12.055Z,967.50
2022-07-26T06:29:12.094Z,961.88
2022-07-26T06:30:12.030Z,933.75
2022-07-26T06:31:12.042Z,928.12
2022-07-26T06:32:12.038Z,933.75
2022-07-26T06:33:11.980Z,928.12
2022-07-26T06:34:12.317Z,928.12
2022-07-26T06:35:11.961Z,922.50
2022-07-26T06:36:11.978Z,950.62
2022-07-26T06:37:11.908Z,945.00
2022-07-26T06:38:11.901Z,950.62
2022-07-26T06:39:11.944Z,961.88
2022-07-26T06:40:11.911Z,978.75
2022-07-26T06:41:11.872Z,1006.88
2022-07-26T06:42:11.902Z,1029.38
2022-07-26T06:43:11.854Z,1063.12
2022-07-26T06:44:12.130Z,1108.12
2022-07-26T06:45:11.860Z,1158.75
2022-07-26T06:46:11.964Z,1164.38
2022-07-26T06:47:11.832Z,1158.75
2022-07-26T06:48:11.914Z,1164.38
2022-07-26T06:49:11.928Z,1153.12
2022-07-26T06:50:11.778Z,1141.88
2022-07-26T06:51:11.760Z,1102.50
2022-07-26T06:52:11.761Z,1046.25
2022-07-26T06:53:11.790Z,1023.75
2022-07-26T06:54:11.959Z,978.75
2022-07-26T06:55:12.512Z,916.88
2022-07-26T06:56:11.725Z,826.88
2022-07-26T06:57:11.822Z,680.62
2022-07-26T06:58:11.702Z,607.50
2022-07-26T06:59:11.750Z,624.38
2022-07-26T07:00:11.654Z,691.88
2022-07-26T07:01:11.700Z,781.88
2022-07-26T07:02:11.678Z,916.88
2022-07-26T07:03:11.648Z,1006.88
2022-07-26T07:04:12.033Z,922.50
2022-07-26T07:05:11.853Z,804.38
2022-07-26T07:06:11.622Z,776.25
2022-07-26T07:07:11.604Z,765.00
2022-07-26T07:08:11.618Z,798.75
2022-07-26T07:09:11.657Z,826.88
2022-07-26T07:10:12.608Z,849.38
2022-07-26T07:11:11.580Z,849.38
2022-07-26T07:12:11.545Z,843.75
2022-07-26T07:13:11.542Z,838.12
2022-07-26T07:14:11.812Z,855.00
2022-07-26T07:15:11.523Z,849.38
2022-07-26T07:16:11.542Z,826.88
2022-07-26T07:17:15.944Z,703.12
2022-07-26T07:18:12.580Z,601.88
2022-07-26T07:19:11.520Z,562.50
2022-07-26T07:20:11.449Z,517.50
2022-07-26T07:21:11.455Z,466.88
2022-07-26T07:22:11.531Z,405.00
2022-07-26T07:23:11.427Z,337.50
2022-07-26T07:24:11.841Z,298.12
2022-07-26T07:25:11.479Z,275.62
2022-07-26T07:26:11.378Z,247.50
2022-07-26T07:27:11.353Z,225.00
2022-07-26T07:28:11.414Z,219.38
2022-07-26T07:29:11.388Z,219.38
2022-07-26T07:30:11.376Z,241.88
2022-07-26T07:31:11.481Z,292.50
2022-07-26T07:32:16.097Z,348.75
2022-07-26T07:33:18.798Z,405.00
2022-07-26T07:34:12.638Z,466.88
2022-07-26T07:35:12.619Z,523.12
2022-07-26T07:36:11.295Z,540.00
2022-07-26T07:37:11.257Z,489.38
2022-07-26T07:38:11.277Z,416.25
2022-07-26T07:39:17.103Z,354.38
2022-07-26T07:40:12.277Z,354.38
2022-07-26T07:41:11.260Z,348.75
2022-07-26T07:42:11.241Z,331.88
2022-07-26T07:43:11.192Z,320.62
2022-07-26T07:44:11.556Z,337.50
2022-07-26T07:45:11.178Z,376.88
2022-07-26T07:46:11.154Z,433.12
2022-07-26T07:47:11.295Z,483.75
2022-07-26T07:48:11.135Z,517.50
2022-07-26T07:49:11.828Z,528.75
2022-07-26T07:50:11.179Z,517.50
2022-07-26T07:51:11.099Z,495.00
2022-07-26T07:52:11.129Z,489.38
2022-07-26T07:53:11.202Z,500.62
2022-07-26T07:54:11.107Z,551.25
2022-07-26T07:55:39.949Z,607.50
2022-07-26T07:56:12.030Z,691.88
2022-07-26T07:57:11.054Z,781.88
2022-07-26T07:58:11.014Z,855.00
2022-07-26T07:59:11.486Z,916.88
2022-07-26T08:00:11.832Z,961.88
2022-07-26T08:01:11.044Z,984.38
2022-07-26T08:02:10.979Z,967.50
2022-07-26T08:03:10.974Z,939.38
2022-07-26T08:04:11.031Z,911.25
2022-07-26T08:05:13.956Z,877.50
2022-07-26T08:06:10.950Z,826.88
2022-07-26T08:07:10.937Z,843.75
2022-07-26T08:08:10.909Z,832.50
2022-07-26T08:09:13.351Z,843.75
2022-07-26T08:10:10.926Z,883.12
2022-07-26T08:11:10.914Z,939.38
2022-07-26T08:12:10.868Z,1051.88
2022-07-26T08:13:10.957Z,1113.75
2022-07-26T08:14:11.013Z,1141.88
2022-07-26T08:15:10.845Z,1366.88
2022-07-26T08:16:10.847Z,1310.62
2022-07-26T08:17:10.819Z,1372.50
2022-07-26T08:18:10.816Z,961.88
2022-07-26T08:19:11.086Z,742.50
2022-07-26T08:20:14.782Z,669.38
2022-07-26T08:21:11.843Z,601.88
2022-07-26T08:22:10.803Z,556.88
2022-07-26T08:23:10.797Z,523.12
2022-07-26T08:24:10.738Z,489.38
2022-07-26T08:25:10.783Z,472.50
2022-07-26T08:26:10.732Z,478.12
2022-07-26T08:27:10.770Z,495.00
2022-07-26T08:28:30.679Z,489.38
2022-07-26T08:29:12.043Z,478.12
2022-07-26T08:30:10.694Z,478.12
2022-07-26T08:31:10.744Z,500.62
2022-07-26T08:32:10.636Z,511.88
2022-07-26T08:33:10.652Z,528.75
2022-07-26T08:34:10.656Z,562.50
2022-07-26T08:35:17.358Z,579.38
2022-07-26T08:36:11.628Z,613.12
2022-07-26T08:37:18.269Z,652.50
2022-07-26T08:38:11.566Z,686.25
2022-07-26T08:39:10.855Z,697.50
2022-07-26T08:40:10.614Z,725.62
2022-07-26T08:41:10.585Z,765.00
2022-07-26T08:42:10.575Z,821.25
2022-07-26T08:43:10.546Z,832.50
2022-07-26T08:44:10.555Z,815.62
2022-07-26T08:45:10.541Z,787.50
2022-07-26T08:46:11.651Z,781.88
2022-07-26T08:47:10.507Z,787.50
2022-07-26T08:48:18.743Z,815.62
2022-07-26T08:49:12.281Z,843.75
2022-07-26T08:50:10.470Z,860.62
2022-07-26T08:51:11.097Z,871.88
2022-07-26T08:52:10.458Z,900.00
2022-07-26T08:53:10.533Z,945.00
2022-07-26T08:54:10.406Z,967.50
2022-07-26T08:55:10.470Z,995.62
2022-07-26T08:56:10.401Z,1023.75
2022-07-26T08:57:10.373Z,1046.25
2022-07-26T08:58:10.361Z,1085.62
2022-07-26T08:59:14.378Z,1395.00
2022-07-26T09:00:11.412Z,1299.38
2022-07-26T09:01:10.368Z,1389.38
2022-07-26T09:02:10.337Z,1524.38
2022-07-26T09:03:10.328Z,1614.38
2022-07-26T09:04:13.578Z,1710.00
2022-07-26T09:05:10.295Z,1923.75
2022-07-26T09:06:10.343Z,1923.75
2022-07-26T09:07:10.267Z,1929.38
2022-07-26T09:08:10.314Z,1755.00
2022-07-26T09:09:10.610Z,1805.62
2022-07-26T09:10:10.338Z,1816.88
2022-07-26T09:11:10.290Z,2295.00
2022-07-26T09:12:10.195Z,2098.12
2022-07-26T09:13:10.230Z,1974.38
2022-07-26T09:14:10.283Z,2469.38
2022-07-26T09:15:10.193Z,3189.38
2022-07-26T09:16:10.318Z,3155.62
2022-07-26T09:17:10.160Z,2761.88
2022-07-26T09:18:10.125Z,2728.12
2022-07-26T09:19:10.330Z,2401.88
2022-07-26T09:20:10.278Z,2407.50
2022-07-26T09:21:10.181Z,2638.12
2022-07-26T09:22:10.669Z,2728.12
2022-07-26T09:23:10.108Z,2846.25
2022-07-26T09:24:10.080Z,2908.12
2022-07-26T09:25:10.129Z,2739.38
2022-07-26T09:26:10.153Z,2086.88
2022-07-26T09:27:10.068Z,2570.62
2022-07-26T09:28:10.035Z,2986.88
2022-07-26T09:29:10.433Z,3183.75
2022-07-26T09:30:10.025Z,1490.62
2022-07-26T09:31:10.107Z,1231.88
2022-07-26T09:32:10.090Z,1170.00
2022-07-26T09:33:09.984Z,1288.12
2022-07-26T09:34:10.429Z,1496.25
2022-07-26T09:35:23.931Z,2761.88
2022-07-26T09:36:11.132Z,2857.50
2022-07-26T09:37:12.499Z,3892.50
2022-07-26T09:38:09.912Z,3684.38
2022-07-26T09:39:10.372Z,2851.88
2022-07-26T09:40:09.934Z,1665.00
2022-07-26T09:41:10.045Z,1546.88
2022-07-26T09:43:10.863Z,1687.50
2022-07-26T09:44:11.290Z,2863.12
2022-07-26T09:45:09.852Z,1890.00
2022-07-26T09:46:10.061Z,1822.50
2022-07-26T09:47:09.920Z,2784.38
2022-07-26T09:48:09.828Z,1642.50
2022-07-26T09:49:11.455Z,945.00
2022-07-26T09:50:11.635Z,697.50
2022-07-26T09:51:09.939Z,523.12
2022-07-26T09:52:09.811Z,399.38
2022-07-26T09:53:09.790Z,348.75
2022-07-26T09:54:10.203Z,309.38
2022-07-26T09:55:09.773Z,281.25
2022-07-26T09:56:09.776Z,253.12
2022-07-26T09:57:09.742Z,253.12
2022-07-26T09:58:09.709Z,298.12
2022-07-26T09:59:09.731Z,371.25
2022-07-26T10:00:09.693Z,483.75
2022-07-26T10:01:09.726Z,624.38
2022-07-26T10:02:09.746Z,787.50
2022-07-26T10:03:09.726Z,877.50
2022-07-26T10:04:09.949Z,950.62
2022-07-26T10:05:09.660Z,900.00
2022-07-26T10:06:09.669Z,770.62
2022-07-26T10:07:09.630Z,646.88
2022-07-26T10:08:09.635Z,528.75
2022-07-26T10:09:09.607Z,433.12
2022-07-26T10:10:09.580Z,360.00
2022-07-26T10:11:09.663Z,309.38
2022-07-26T10:12:09.566Z,275.62
2022-07-26T10:13:09.556Z,264.38
2022-07-26T10:14:09.774Z,258.75
2022-07-26T10:15:09.512Z,247.50
2022-07-26T10:16:09.583Z,247.50
2022-07-26T10:17:10.529Z,247.50
2022-07-26T10:18:09.508Z,253.12
2022-07-26T10:19:10.569Z,270.00
2022-07-26T10:20:16.882Z,292.50
2022-07-26T10:21:10.501Z,315.00
2022-07-26T10:22:09.463Z,337.50
2022-07-26T10:23:09.477Z,365.62
2022-07-26T10:24:09.697Z,405.00
2022-07-26T10:25:09.418Z,455.62
2022-07-26T10:26:09.912Z,511.88
2022-07-26T10:27:09.397Z,579.38
2022-07-26T10:28:11.781Z,646.88
2022-07-26T10:29:09.380Z,731.25
2022-07-26T10:30:09.385Z,832.50
2022-07-26T10:31:09.428Z,916.88
2022-07-26T10:32:09.373Z,1001.25
2022-07-26T10:33:09.338Z,1074.38
2022-07-26T10:34:09.682Z,1175.62
2022-07-26T10:35:09.306Z,1288.12
2022-07-26T10:36:09.317Z,1282.50
2022-07-26T10:37:09.311Z,1355.62
2022-07-26T10:38:09.471Z,1423.12
2022-07-26T10:39:09.387Z,1513.12
2022-07-26T10:40:09.234Z,1597.50
2022-07-26T10:41:09.305Z,1805.62
2022-07-26T10:42:09.196Z,2171.25
2022-07-26T10:43:37.754Z,2025.00
2022-07-26T10:44:10.537Z,2047.50
2022-07-26T10:45:09.203Z,2148.75
2022-07-26T10:46:09.243Z,2368.12
2022-07-26T10:47:09.305Z,3256.88
2022-07-26T10:48:09.242Z,2244.38
2022-07-26T10:49:09.253Z,2418.75
2022-07-26T10:50:09.170Z,2036.25
2022-07-26T10:51:09.110Z,1974.38
2022-07-26T10:52:09.169Z,1974.38
2022-07-26T10:53:09.113Z,1991.25
2022-07-26T10:54:09.694Z,2030.62
2022-07-26T10:55:09.104Z,2086.88
2022-07-26T10:56:09.080Z,2261.25
2022-07-26T10:57:09.130Z,2306.25
2022-07-26T10:58:09.151Z,2379.38
2022-07-26T10:59:09.035Z,2373.75
2022-07-26T11:00:09.071Z,2418.75
2022-07-26T11:01:09.121Z,3583.12
2022-07-26T11:02:09.092Z,2233.12
2022-07-26T11:03:09.045Z,2992.50
2022-07-26T11:04:10.247Z,4213.12
2022-07-26T11:05:09.021Z,3830.62
2022-07-26T11:06:08.966Z,2750.62
2022-07-26T11:07:09.016Z,1546.88
2022-07-26T11:08:08.978Z,1586.25
2022-07-26T11:09:08.987Z,2660.62
2022-07-26T11:10:08.984Z,2188.12
2022-07-26T11:11:08.956Z,3954.38
2022-07-26T11:12:08.992Z,2941.88
2022-07-26T11:13:08.920Z,3870.00
2022-07-26T11:14:09.357Z,3954.38
2022-07-26T11:15:08.905Z,3465.00
2022-07-26T11:16:08.918Z,4033.12
2022-07-26T11:17:08.953Z,4151.25
2022-07-26T11:18:08.878Z,4111.88
2022-07-26T11:19:08.823Z,4140.00
2022-07-26T11:20:08.851Z,3397.50
2022-07-26T11:21:08.865Z,4275.00
2022-07-26T11:22:08.882Z,3690.00
2022-07-26T11:23:08.843Z,4331.25
2022-07-26T11:24:09.252Z,3414.38
2022-07-26T11:25:08.798Z,3825.00
2022-07-26T11:26:08.795Z,4072.50
2022-07-26T11:27:08.856Z,4179.38
2022-07-26T11:28:08.782Z,4162.50
2022-07-26T11:29:08.725Z,4280.62
2022-07-26T11:30:08.756Z,2649.38
2022-07-26T11:31:08.765Z,3639.38
2022-07-26T11:32:14.817Z,1552.50
2022-07-26T11:33:09.736Z,1580.62
2022-07-26T11:34:08.964Z,2317.50
2022-07-26T11:35:08.694Z,2767.50
2022-07-26T11:36:08.701Z,3498.75
2022-07-26T11:37:08.694Z,4095.00
2022-07-26T11:38:12.189Z,4066.88
2022-07-26T11:39:08.672Z,4021.88
2022-07-26T11:40:08.653Z,3853.12
2022-07-26T11:41:08.633Z,4100.62
2022-07-26T11:42:08.668Z,1462.50
2022-07-26T11:43:08.742Z,2733.75
2022-07-26T11:44:08.639Z,1501.88
2022-07-26T11:45:08.601Z,3740.62
2022-07-26T11:46:08.642Z,1580.62
2022-07-26T11:47:08.610Z,4016.25
2022-07-26T11:48:08.597Z,1591.88
2022-07-26T11:49:08.592Z,1305.00
2022-07-26T11:50:16.797Z,1321.88
2022-07-26T11:51:09.524Z,1361.25
2022-07-26T11:52:08.546Z,1411.88
2022-07-26T11:53:08.521Z,1479.38
2022-07-26T11:54:08.877Z,1541.25
2022-07-26T11:55:08.489Z,1608.75
2022-07-26T11:56:08.459Z,1681.88
2022-07-26T11:57:08.533Z,1687.50
2022-07-26T11:58:08.549Z,1732.50
2022-07-26T11:59:08.557Z,1760.62
2022-07-26T12:00:08.437Z,1805.62
2022-07-26T12:01:08.481Z,2053.12
2022-07-26T12:02:08.453Z,5079.38
2022-07-26T12:03:08.496Z,3391.88
2022-07-26T12:04:09.164Z,1760.62
2022-07-26T12:05:08.465Z,3043.12
2022-07-26T12:06:08.406Z,1693.12
2022-07-26T12:07:08.400Z,1389.38
2022-07-26T12:08:08.428Z,2446.88
2022-07-26T12:09:08.355Z,1636.88
2022-07-26T12:10:08.356Z,1310.62
2022-07-26T12:11:08.410Z,3346.88
2022-07-26T12:12:08.432Z,4275.00
2022-07-26T12:13:08.316Z,4331.25
2022-07-26T12:14:08.616Z,4393.12
2022-07-26T12:15:08.281Z,4601.25
2022-07-26T12:16:08.303Z,4916.25
2022-07-26T12:17:08.269Z,4674.38
2022-07-26T12:18:08.363Z,5220.00
2022-07-26T12:19:08.221Z,3943.12
2022-07-26T12:20:08.259Z,1856.25
2022-07-26T12:21:08.887Z,1845.00
2022-07-26T12:22:08.217Z,2025.00
2022-07-26T12:23:08.275Z,1726.88
2022-07-26T12:24:08.528Z,1653.75
2022-07-26T12:25:08.189Z,1642.50
2022-07-26T12:26:10.111Z,3678.75
2022-07-26T12:27:08.153Z,1530.00
2022-07-26T12:28:08.219Z,1535.62
2022-07-26T12:29:08.155Z,1473.75
2022-07-26T12:30:08.137Z,1428.75
2022-07-26T12:31:08.204Z,1378.12
2022-07-26T12:32:12.293Z,1316.25
2022-07-26T12:33:08.225Z,1237.50
2022-07-26T12:34:08.634Z,1164.38
2022-07-26T12:35:08.091Z,1091.25
2022-07-26T12:36:08.064Z,1057.50